sensor_id;sensor_type;location;lat;lon;timestamp;P1;durP1;ratioP1;P2;durP2;ratioP2
25191;SDS011;13143;50.924;5.320;2023-04-22T21:47:31;25.02;;;18.70;;
25191;SDS011;13143;50.924;5.320;2023-04-22T21:49:57;22.67;;;18.27;;
25191;SDS011;13143;50.924;5.320;2023-04-22T21:52:23;26.67;;;19.63;;
25191;SDS011;13143;50.924;5.320;2023-04-22T21:54:48;27.30;;;19.98;;
25191;SDS011;13143;50.924;5.320;2023-04-22T21:57:14;26.23;;;19.33;;
25191;SDS011;13143;50.924;5.320;2023-04-22T21:59:40;26.23;;;18.92;;
25191;SDS011;13143;50.924;5.320;2023-04-22T22:02:05;25.80;;;20.52;;
25191;SDS011;13143;50.924;5.320;2023-04-22T22:04:31;24.90;;;19.58;;
25191;SDS011;13143;50.924;5.320;2023-04-22T22:06:57;27.17;;;20.70;;
25191;SDS011;13143;50.924;5.320;2023-04-22T22:09:22;30.98;;;21.10;;
25191;SDS011;13143;50.924;5.320;2023-04-22T22:11:48;26.55;;;20.90;;
25191;SDS011;13143;50.924;5.320;2023-04-22T22:14:14;28.85;;;20.92;;
25191;SDS011;13143;50.924;5.320;2023-04-22T22:17:04;25.95;;;20.38;;
25191;SDS011;13143;50.924;5.320;2023-04-22T22:19:34;29.85;;;21.10;;
25191;SDS011;13143;50.924;5.320;2023-04-22T22:22:00;26.58;;;21.08;;
25191;SDS011;13143;50.924;5.320;2023-04-22T22:24:26;26.23;;;20.63;;
25191;SDS011;13143;50.924;5.320;2023-04-22T22:26:52;28.65;;;21.52;;
25191;SDS011;13143;50.924;5.320;2023-04-22T22:29:18;28.10;;;19.45;;
25191;SDS011;13143;50.924;5.320;2023-04-22T22:31:44;27.25;;;21.02;;
25191;SDS011;13143;50.924;5.320;2023-04-22T22:34:11;27.35;;;20.45;;
25191;SDS011;13143;50.924;5.320;2023-04-22T22:36:37;30.55;;;21.45;;
25191;SDS011;13143;50.924;5.320;2023-04-22T22:39:03;30.48;;;20.92;;
25191;SDS011;13143;50.924;5.320;2023-04-22T22:41:29;34.55;;;22.42;;
25191;SDS011;13143;50.924;5.320;2023-04-22T22:43:55;28.85;;;21.67;;
25191;SDS011;13143;50.924;5.320;2023-04-22T22:46:21;31.65;;;22.42;;
25191;SDS011;13143;50.924;5.320;2023-04-22T22:48:47;30.30;;;22.17;;
25191;SDS011;13143;50.924;5.320;2023-04-22T22:51:14;30.38;;;21.85;;
25191;SDS011;13143;50.924;5.320;2023-04-22T22:53:40;29.63;;;20.80;;
25191;SDS011;13143;50.924;5.320;2023-04-22T22:56:06;30.13;;;21.10;;
25191;SDS011;13143;50.924;5.320;2023-04-22T22:58:32;31.35;;;21.38;;
25191;SDS011;13143;50.924;5.320;2023-04-22T23:01:01;26.75;;;21.35;;
25191;SDS011;13143;50.924;5.320;2023-04-22T23:03:27;28.63;;;21.88;;
25191;SDS011;13143;50.924;5.320;2023-04-22T23:05:54;30.48;;;23.08;;
25191;SDS011;13143;50.924;5.320;2023-04-22T23:08:20;28.75;;;22.25;;
25191;SDS011;13143;50.924;5.320;2023-04-22T23:10:46;27.88;;;21.63;;
25191;SDS011;13143;50.924;5.320;2023-04-22T23:13:12;29.48;;;22.20;;
25191;SDS011;13143;50.924;5.320;2023-04-22T23:15:38;29.05;;;21.08;;
25191;SDS011;13143;50.924;5.320;2023-04-22T23:18:04;28.75;;;21.67;;
25191;SDS011;13143;50.924;5.320;2023-04-22T23:20:31;29.00;;;20.75;;
25191;SDS011;13143;50.924;5.320;2023-04-22T23:22:57;28.30;;;22.33;;
25191;SDS011;13143;50.924;5.320;2023-04-22T23:25:25;28.58;;;22.25;;
25191;SDS011;13143;50.924;5.320;2023-04-22T23:27:51;28.63;;;21.30;;
25191;SDS011;13143;50.924;5.320;2023-04-22T23:30:17;27.98;;;21.83;;
25191;SDS011;13143;50.924;5.320;2023-04-22T23:32:44;26.83;;;21.30;;
25191;SDS011;13143;50.924;5.320;2023-04-22T23:35:12;29.45;;;21.95;;
25191;SDS011;13143;50.924;5.320;2023-04-22T23:37:41;27.40;;;21.85;;
25191;SDS011;13143;50.924;5.320;2023-04-22T23:40:09;31.95;;;21.80;;
25191;SDS011;13143;50.924;5.320;2023-04-22T23:42:36;27.20;;;21.58;;
25191;SDS011;13143;50.924;5.320;2023-04-22T23:45:02;29.95;;;21.73;;
25191;SDS011;13143;50.924;5.320;2023-04-22T23:47:28;29.98;;;21.65;;
25191;SDS011;13143;50.924;5.320;2023-04-22T23:49:55;30.88;;;22.55;;
25191;SDS011;13143;50.924;5.320;2023-04-22T23:52:22;31.08;;;21.95;;
25191;SDS011;13143;50.924;5.320;2023-04-22T23:54:48;28.65;;;21.60;;
25191;SDS011;13143;50.924;5.320;2023-04-22T23:57:16;28.05;;;22.42;;
25191;SDS011;13143;50.924;5.320;2023-04-22T23:59:43;32.63;;;22.90;;
